createdAt,value
2022-08-26T00:01:56.576Z,26.84
2022-08-26T00:04:25.915Z,26.82
2022-08-26T00:06:55.626Z,26.90
2022-08-26T00:09:25.399Z,26.81
2022-08-26T00:11:54.653Z,26.89
2022-08-26T00:14:27.183Z,26.87
2022-08-26T00:16:57.995Z,26.87
2022-08-26T00:19:26.187Z,26.88
2022-08-26T00:21:54.546Z,26.82
2022-08-26T00:24:23.988Z,26.78
2022-08-26T00:26:51.892Z,26.75
2022-08-26T00:29:21.312Z,26.68
2022-08-26T00:31:49.661Z,26.79
2022-08-26T00:34:19.322Z,26.76
2022-08-26T00:36:51.794Z,26.77
2022-08-26T00:39:20.726Z,26.79
2022-08-26T00:41:50.182Z,26.80
2022-08-26T00:44:19.667Z,26.75
2022-08-26T00:47:01.424Z,26.67
2022-08-26T00:49:47.588Z,26.72
2022-08-26T00:52:20.023Z,26.86
2022-08-26T00:55:02.695Z,26.85
2022-08-26T00:57:32.328Z,26.93
2022-08-26T01:00:02.150Z,26.93
2022-08-26T01:02:31.370Z,26.92
2022-08-26T01:05:01.596Z,26.89
2022-08-26T01:07:32.622Z,26.89
2022-08-26T01:10:09.370Z,26.87
2022-08-26T01:12:43.031Z,26.91
2022-08-26T01:15:15.559Z,26.93
2022-08-26T01:17:43.913Z,26.88
2022-08-26T01:20:19.453Z,26.89
2022-08-26T01:23:03.264Z,26.88
2022-08-26T01:25:33.442Z,26.93
2022-08-26T01:28:06.636Z,27.00
2022-08-26T01:30:36.586Z,26.90
2022-08-26T01:33:11.151Z,26.91
2022-08-26T01:35:40.320Z,26.99
2022-08-26T01:38:11.594Z,26.94
2022-08-26T01:40:43.143Z,27.02
2022-08-26T01:43:17.651Z,26.94
2022-08-26T01:45:48.389Z,26.84
2022-08-26T01:48:21.185Z,26.92
2022-08-26T01:50:49.656Z,26.81
2022-08-26T01:53:19.988Z,26.89
2022-08-26T01:55:53.332Z,26.83
2022-08-26T01:58:43.576Z,26.86
2022-08-26T02:01:12.210Z,26.78
2022-08-26T02:03:51.569Z,26.97
2022-08-26T02:06:19.984Z,26.95
2022-08-26T02:08:50.901Z,27.09
2022-08-26T02:11:19.172Z,27.06
2022-08-26T02:13:55.745Z,26.99
2022-08-26T02:16:26.244Z,26.87
2022-08-26T02:18:55.667Z,26.79
2022-08-26T02:21:24.950Z,26.75
2022-08-26T02:23:56.241Z,26.83
2022-08-26T02:26:28.196Z,26.90
2022-08-26T02:29:16.486Z,26.77
2022-08-26T02:31:44.503Z,26.73
2022-08-26T02:34:15.793Z,26.65
2022-08-26T02:36:43.829Z,26.59
2022-08-26T02:39:13.633Z,26.40
2022-08-26T02:41:45.316Z,26.34
2022-08-26T02:44:13.353Z,26.32
2022-08-26T02:46:41.828Z,26.15
2022-08-26T02:49:17.103Z,26.10
2022-08-26T02:51:45.714Z,26.06
2022-08-26T02:54:14.062Z,26.02
2022-08-26T02:56:42.388Z,26.05
2022-08-26T02:59:12.750Z,26.07
2022-08-26T03:01:40.953Z,26.04
2022-08-26T03:04:12.276Z,25.97
2022-08-26T03:06:41.426Z,25.96
2022-08-26T03:09:10.237Z,25.90
2022-08-26T03:11:47.314Z,25.96
2022-08-26T03:14:15.351Z,25.91
2022-08-26T03:16:43.757Z,25.97
2022-08-26T03:19:18.240Z,25.86
2022-08-26T03:21:47.600Z,25.91
2022-08-26T03:24:15.768Z,25.96
2022-08-26T03:26:52.559Z,25.91
2022-08-26T03:29:40.236Z,25.94
2022-08-26T03:32:08.685Z,25.92
2022-08-26T03:34:37.344Z,25.93
2022-08-26T03:37:06.610Z,25.95
2022-08-26T03:39:34.992Z,25.93
2022-08-26T03:42:02.925Z,26.08
2022-08-26T03:44:31.672Z,26.05
2022-08-26T03:47:00.641Z,25.95
2022-08-26T03:49:31.473Z,25.81
2022-08-26T03:52:00.327Z,25.79
2022-08-26T03:54:28.146Z,25.75
2022-08-26T03:56:56.027Z,25.66
2022-08-26T03:59:25.089Z,25.63
2022-08-26T04:01:52.978Z,25.57
2022-08-26T04:04:22.758Z,25.59
2022-08-26T04:06:58.523Z,25.57
2022-08-26T04:09:27.781Z,25.50
2022-08-26T04:11:56.120Z,25.57
2022-08-26T04:14:27.081Z,25.59
2022-08-26T04:16:56.467Z,25.40
2022-08-26T04:19:25.854Z,25.40
2022-08-26T04:21:54.246Z,25.37
2022-08-26T04:24:24.708Z,25.41
2022-08-26T04:26:52.937Z,25.40
2022-08-26T04:29:24.408Z,25.62
2022-08-26T04:31:55.867Z,26.32
2022-08-26T04:34:28.324Z,26.49
2022-08-26T04:36:58.162Z,26.76
2022-08-26T04:39:27.574Z,26.81
2022-08-26T04:41:57.833Z,26.54
2022-08-26T04:44:28.749Z,26.84
2022-08-26T04:46:57.531Z,26.74
2022-08-26T04:49:27.596Z,26.58
2022-08-26T04:51:55.869Z,26.80
2022-08-26T04:54:25.122Z,26.89
2022-08-26T04:56:53.220Z,26.59
2022-08-26T04:59:21.335Z,26.60
2022-08-26T05:01:52.224Z,26.62
2022-08-26T05:04:21.297Z,26.41
2022-08-26T05:06:50.799Z,26.60
2022-08-26T05:09:20.265Z,26.54
2022-08-26T05:11:52.151Z,26.75
2022-08-26T05:14:23.379Z,26.79
2022-08-26T05:16:52.430Z,27.10
2022-08-26T05:19:21.067Z,27.05
2022-08-26T05:21:49.447Z,26.91
2022-08-26T05:24:18.266Z,26.98
2022-08-26T05:26:46.895Z,27.26
2022-08-26T05:29:14.695Z,27.42
2022-08-26T05:31:43.230Z,27.41
2022-08-26T05:34:11.113Z,27.43
2022-08-26T05:36:40.273Z,27.50
2022-08-26T05:39:10.648Z,27.66
2022-08-26T05:41:41.342Z,27.46
2022-08-26T05:44:14.013Z,27.40
2022-08-26T05:46:44.875Z,27.27
2022-08-26T05:49:14.712Z,27.35
2022-08-26T05:51:47.530Z,27.32
2022-08-26T05:54:21.341Z,27.49
2022-08-26T05:56:52.195Z,27.49
2022-08-26T05:59:23.898Z,27.75
2022-08-26T06:01:54.987Z,27.89
2022-08-26T06:04:27.006Z,28.04
2022-08-26T06:06:55.920Z,28.08
2022-08-26T06:09:24.319Z,28.03
2022-08-26T06:11:52.138Z,28.25
2022-08-26T06:14:21.643Z,28.27
2022-08-26T06:16:49.943Z,28.23
2022-08-26T06:19:18.076Z,28.19
2022-08-26T06:21:47.988Z,28.36
2022-08-26T06:24:41.336Z,28.52
2022-08-26T06:27:13.891Z,28.63
2022-08-26T06:29:43.373Z,28.64
2022-08-26T06:32:12.110Z,28.64
2022-08-26T06:34:40.236Z,28.61
2022-08-26T06:37:08.964Z,28.90
2022-08-26T06:39:41.038Z,29.01
2022-08-26T06:42:10.869Z,29.08
2022-08-26T06:44:39.041Z,29.15
2022-08-26T06:47:09.129Z,29.31
2022-08-26T06:49:37.444Z,29.40
2022-08-26T06:52:05.270Z,29.28
2022-08-26T06:54:33.112Z,29.41
2022-08-26T06:57:01.285Z,29.46
2022-08-26T06:59:31.303Z,29.35
2022-08-26T07:02:09.859Z,29.37
2022-08-26T07:04:42.085Z,29.55
2022-08-26T07:07:14.430Z,29.78
2022-08-26T07:09:42.281Z,30.08
2022-08-26T07:12:10.647Z,30.08
2022-08-26T07:14:39.308Z,30.07
2022-08-26T07:17:09.252Z,30.00
2022-08-26T07:19:40.042Z,30.50
2022-08-26T07:22:08.626Z,30.58
2022-08-26T07:24:43.108Z,30.59
2022-08-26T07:27:14.468Z,31.17
2022-08-26T07:29:43.742Z,31.42
2022-08-26T07:32:14.895Z,30.86
2022-08-26T07:34:43.624Z,31.04
2022-08-26T07:37:11.591Z,30.79
2022-08-26T07:39:41.779Z,31.16
2022-08-26T07:42:14.164Z,31.10
2022-08-26T07:44:43.268Z,31.27
2022-08-26T07:47:25.703Z,31.36
2022-08-26T07:49:56.288Z,31.47
2022-08-26T07:52:27.536Z,31.44
2022-08-26T07:54:58.380Z,31.11
2022-08-26T07:57:27.904Z,30.84
2022-08-26T07:59:56.665Z,31.34
2022-08-26T08:02:26.080Z,31.60
2022-08-26T08:04:55.391Z,31.68
2022-08-26T08:07:25.813Z,32.09
2022-08-26T08:10:11.316Z,32.11
2022-08-26T08:12:41.118Z,31.70
2022-08-26T08:15:12.314Z,32.15
2022-08-26T08:17:43.516Z,32.39
2022-08-26T08:20:14.121Z,32.54
2022-08-26T08:22:43.094Z,32.57
2022-08-26T08:25:12.213Z,32.58
2022-08-26T08:27:45.213Z,32.23
2022-08-26T08:30:14.915Z,32.19
2022-08-26T08:32:48.942Z,32.29
2022-08-26T08:35:18.823Z,32.65
2022-08-26T08:37:46.939Z,32.64
2022-08-26T08:40:18.812Z,32.25
2022-08-26T08:43:01.669Z,32.36
2022-08-26T08:45:37.254Z,32.35
2022-08-26T08:48:27.328Z,32.33
2022-08-26T08:51:04.424Z,32.15
2022-08-26T08:53:33.025Z,31.98
2022-08-26T08:56:23.710Z,32.27
2022-08-26T08:58:56.723Z,32.56
2022-08-26T09:01:43.236Z,32.41
2022-08-26T09:04:38.977Z,32.31
2022-08-26T09:07:12.102Z,32.67
2022-08-26T09:09:46.285Z,32.90
2022-08-26T09:12:20.759Z,33.13
2022-08-26T09:15:17.307Z,32.91
2022-08-26T09:18:24.930Z,33.44
2022-08-26T09:21:00.440Z,33.02
2022-08-26T09:23:30.346Z,33.02
2022-08-26T09:26:29.255Z,33.17
2022-08-26T09:28:59.290Z,33.40
2022-08-26T09:31:36.526Z,32.91
2022-08-26T09:34:12.008Z,33.40
2022-08-26T09:36:56.028Z,33.88
2022-08-26T09:39:33.602Z,34.13
2022-08-26T09:42:05.634Z,33.77
2022-08-26T09:44:35.691Z,33.42
2022-08-26T09:47:07.502Z,33.40
2022-08-26T09:49:41.108Z,33.43
2022-08-26T09:52:17.697Z,33.86
2022-08-26T09:54:58.259Z,33.55
2022-08-26T09:57:29.766Z,33.67
2022-08-26T09:59:57.612Z,34.15
2022-08-26T10:02:34.423Z,34.17
2022-08-26T10:05:09.523Z,33.92
2022-08-26T10:07:38.903Z,33.60
2022-08-26T10:10:22.823Z,34.04
2022-08-26T10:12:59.169Z,34.13
2022-08-26T10:15:28.368Z,33.54
2022-08-26T10:18:06.626Z,33.58
2022-08-26T10:20:42.154Z,33.92
2022-08-26T10:23:18.147Z,34.05
2022-08-26T10:25:48.110Z,34.09
2022-08-26T10:28:44.403Z,34.13
2022-08-26T10:31:28.147Z,34.57
2022-08-26T10:34:00.468Z,34.61
2022-08-26T10:40:07.681Z,33.67
2022-08-26T10:42:35.569Z,34.18
2022-08-26T10:45:15.067Z,34.69
2022-08-26T10:47:55.982Z,34.93
2022-08-26T10:50:30.948Z,35.45
2022-08-26T10:53:07.655Z,35.21
2022-08-26T10:55:43.267Z,34.52
2022-08-26T10:58:47.053Z,34.64
2022-08-26T11:01:43.323Z,34.60
2022-08-26T11:04:29.189Z,34.37
2022-08-26T11:07:35.189Z,34.24
2022-08-26T11:10:17.047Z,34.48
2022-08-26T11:12:49.223Z,34.23
2022-08-26T11:15:24.398Z,34.48
2022-08-26T11:17:52.569Z,34.58
2022-08-26T11:20:23.893Z,34.21
2022-08-26T11:22:54.849Z,34.76
2022-08-26T11:25:29.628Z,34.70
2022-08-26T11:28:00.559Z,34.56
2022-08-26T11:30:42.964Z,34.08
2022-08-26T11:33:51.046Z,34.63
2022-08-26T11:36:46.788Z,35.25
2022-08-26T11:39:29.543Z,35.55
2022-08-26T11:42:16.434Z,34.83
2022-08-26T11:44:49.868Z,34.88
2022-08-26T11:47:31.553Z,34.79
2022-08-26T11:50:10.119Z,34.84
2022-08-26T11:52:38.837Z,34.90
2022-08-26T11:55:11.825Z,34.89
2022-08-26T11:57:53.302Z,34.97
2022-08-26T12:00:24.507Z,34.72
2022-08-26T12:02:53.461Z,34.49
2022-08-26T12:05:29.592Z,34.47
2022-08-26T12:08:12.324Z,34.77
2022-08-26T12:10:40.481Z,34.74
2022-08-26T12:13:09.302Z,34.49
2022-08-26T12:15:37.110Z,34.16
2022-08-26T12:18:29.649Z,34.38
2022-08-26T12:21:12.404Z,34.66
2022-08-26T12:23:49.918Z,34.63
2022-08-26T12:26:25.776Z,34.70
2022-08-26T12:29:26.676Z,34.91
2022-08-26T12:32:14.474Z,34.70
2022-08-26T12:34:55.923Z,34.81
2022-08-26T12:37:44.557Z,35.05
2022-08-26T12:40:41.920Z,34.89
2022-08-26T12:43:16.459Z,35.16
2022-08-26T12:46:07.330Z,35.23
2022-08-26T12:48:55.484Z,35.68
2022-08-26T12:51:28.577Z,35.68
2022-08-26T12:54:07.623Z,35.68
2022-08-26T12:56:43.771Z,35.25
2022-08-26T12:59:27.411Z,35.53
2022-08-26T13:01:58.359Z,35.52
2022-08-26T13:04:47.415Z,35.31
2022-08-26T13:07:28.913Z,35.40
2022-08-26T13:10:07.644Z,35.54
2022-08-26T13:12:44.484Z,35.70
2022-08-26T13:15:28.019Z,35.77
2022-08-26T13:18:03.967Z,35.91
2022-08-26T13:20:35.087Z,35.98
2022-08-26T13:23:18.385Z,35.85
2022-08-26T13:26:18.984Z,35.91
2022-08-26T13:29:01.703Z,35.84
2022-08-26T13:31:36.357Z,35.73
2022-08-26T13:34:11.143Z,35.87
2022-08-26T13:36:48.350Z,36.23
2022-08-26T13:39:20.693Z,36.05
2022-08-26T13:41:52.610Z,36.25
2022-08-26T13:44:32.128Z,36.40
2022-08-26T13:47:02.798Z,36.34
2022-08-26T13:49:40.365Z,36.12
2022-08-26T13:52:25.526Z,35.96
2022-08-26T13:55:03.233Z,36.13
2022-08-26T13:57:35.794Z,36.14
2022-08-26T14:00:11.542Z,36.07
2022-08-26T14:02:42.559Z,36.14
2022-08-26T14:05:14.300Z,36.15
2022-08-26T14:07:47.997Z,36.26
2022-08-26T14:10:19.681Z,36.23
2022-08-26T14:12:55.375Z,36.17
2022-08-26T14:15:33.318Z,36.02
2022-08-26T14:18:07.758Z,35.98
2022-08-26T14:20:50.813Z,35.82
2022-08-26T14:23:22.093Z,35.77
2022-08-26T14:25:54.305Z,35.87
2022-08-26T14:31:03.496Z,35.25
2022-08-26T14:33:39.478Z,35.35
2022-08-26T14:36:28.706Z,35.61
2022-08-26T14:39:08.398Z,35.41
2022-08-26T14:41:54.305Z,35.44
2022-08-26T14:44:40.258Z,35.48
2022-08-26T14:47:10.864Z,35.33
2022-08-26T14:49:49.935Z,34.95
2022-08-26T14:52:19.870Z,34.79
2022-08-26T14:54:49.065Z,34.91
2022-08-26T14:57:27.792Z,35.13
2022-08-26T14:59:58.885Z,35.05
2022-08-26T15:02:33.266Z,35.01
2022-08-26T15:05:09.224Z,34.90
2022-08-26T15:07:47.736Z,34.81
2022-08-26T15:10:18.928Z,35.11
2022-08-26T15:12:51.102Z,35.13
2022-08-26T15:15:26.010Z,35.04
2022-08-26T15:17:55.380Z,34.80
2022-08-26T15:20:26.206Z,34.90
2022-08-26T15:22:54.054Z,34.80
2022-08-26T15:25:22.517Z,34.63
2022-08-26T15:27:50.514Z,34.46
2022-08-26T15:30:18.568Z,34.11
2022-08-26T15:32:47.634Z,34.12
2022-08-26T15:35:15.549Z,34.04
2022-08-26T15:37:43.401Z,33.98
2022-08-26T15:40:11.694Z,33.97
2022-08-26T15:42:39.626Z,34.08
2022-08-26T15:45:10.849Z,34.01
2022-08-26T15:48:01.299Z,34.10
2022-08-26T15:50:39.495Z,33.78
2022-08-26T15:53:13.174Z,33.76
2022-08-26T15:55:41.139Z,33.67
2022-08-26T15:58:12.328Z,33.58
2022-08-26T16:00:42.213Z,33.51
2022-08-26T16:03:10.211Z,33.56
2022-08-26T16:05:49.430Z,33.58
2022-08-26T16:08:17.833Z,33.58
2022-08-26T16:10:50.287Z,33.55
2022-08-26T16:13:20.479Z,33.48
2022-08-26T16:15:49.120Z,33.41
2022-08-26T16:18:17.343Z,33.43
2022-08-26T16:21:01.560Z,33.46
2022-08-26T16:23:38.970Z,33.22
2022-08-26T16:26:11.437Z,33.30
2022-08-26T16:28:39.557Z,33.24
2022-08-26T16:31:09.671Z,33.07
2022-08-26T16:33:38.063Z,33.06
2022-08-26T16:36:07.659Z,33.06
2022-08-26T16:38:37.762Z,33.03
2022-08-26T16:41:07.162Z,33.00
2022-08-26T16:43:35.623Z,32.95
2022-08-26T16:46:06.884Z,32.98
2022-08-26T16:48:35.472Z,33.01
2022-08-26T16:51:03.572Z,32.91
2022-08-26T16:53:31.674Z,32.92
2022-08-26T16:56:00.670Z,32.94
2022-08-26T16:58:29.016Z,32.87
2022-08-26T17:00:57.687Z,32.79
2022-08-26T17:03:26.368Z,32.77
2022-08-26T17:05:54.164Z,32.74
2022-08-26T17:08:28.383Z,32.77
2022-08-26T17:11:00.806Z,32.83
2022-08-26T17:13:35.762Z,32.82
2022-08-26T17:16:07.674Z,32.74
2022-08-26T17:18:37.163Z,32.68
2022-08-26T17:21:09.569Z,32.67
2022-08-26T17:23:38.841Z,32.73
2022-08-26T17:26:07.082Z,32.68
2022-08-26T17:28:35.008Z,32.67
2022-08-26T17:31:06.190Z,32.57
2022-08-26T17:33:34.922Z,32.47
2022-08-26T17:36:03.120Z,32.47
2022-08-26T17:38:30.987Z,32.44
2022-08-26T17:40:59.121Z,32.43
2022-08-26T17:43:27.023Z,32.44
2022-08-26T17:46:04.701Z,32.55
2022-08-26T17:48:39.927Z,32.35
2022-08-26T17:51:17.049Z,32.28
2022-08-26T17:53:46.027Z,32.28
2022-08-26T17:56:17.094Z,32.27
2022-08-26T17:58:51.377Z,32.21
2022-08-26T18:01:26.122Z,32.15
2022-08-26T18:04:00.078Z,32.15
2022-08-26T18:06:30.536Z,32.09
2022-08-26T18:08:59.502Z,32.01
2022-08-26T18:11:28.494Z,31.95
2022-08-26T18:13:56.310Z,31.85
2022-08-26T18:16:24.618Z,31.83
2022-08-26T18:18:53.576Z,31.76
2022-08-26T18:21:27.937Z,31.77
2022-08-26T18:23:56.480Z,31.75
2022-08-26T18:26:30.463Z,31.76
2022-08-26T18:28:59.151Z,31.58
2022-08-26T18:31:27.558Z,31.67
2022-08-26T18:33:55.500Z,31.68
2022-08-26T18:36:27.306Z,31.56
2022-08-26T18:38:55.787Z,31.41
2022-08-26T18:41:26.062Z,31.35
2022-08-26T18:43:54.259Z,31.35
2022-08-26T18:46:25.515Z,31.32
2022-08-26T18:48:59.276Z,31.38
2022-08-26T18:51:45.672Z,31.32
2022-08-26T18:54:15.606Z,31.29
2022-08-26T18:56:43.979Z,31.41
2022-08-26T18:59:14.110Z,31.33
2022-08-26T19:01:42.900Z,31.19
2022-08-26T19:04:14.760Z,31.35
2022-08-26T19:06:46.879Z,31.37
2022-08-26T19:09:17.967Z,31.38
2022-08-26T19:11:47.038Z,31.32
2022-08-26T19:14:18.958Z,31.27
2022-08-26T19:17:19.091Z,31.28
2022-08-26T19:19:50.798Z,31.17
2022-08-26T19:22:27.742Z,31.15
2022-08-26T19:24:55.660Z,30.98
2022-08-26T19:27:28.818Z,31.09
2022-08-26T19:29:57.984Z,30.88
2022-08-26T19:32:26.092Z,30.85
2022-08-26T19:34:54.080Z,30.94
2022-08-26T19:37:22.153Z,30.98
2022-08-26T19:39:51.228Z,30.79
2022-08-26T19:42:19.697Z,30.95
2022-08-26T19:45:05.880Z,30.76
2022-08-26T19:47:37.114Z,30.38
2022-08-26T19:50:08.116Z,30.19
2022-08-26T19:52:38.640Z,30.01
2022-08-26T19:55:09.443Z,29.83
2022-08-26T19:57:40.074Z,29.65
2022-08-26T20:00:15.816Z,29.59
2022-08-26T20:02:44.564Z,29.52
2022-08-26T20:05:13.965Z,29.49
2022-08-26T20:07:42.518Z,29.47
2022-08-26T20:10:13.691Z,29.59
2022-08-26T20:12:42.617Z,29.50
2022-08-26T20:15:13.250Z,29.53
2022-08-26T20:17:41.177Z,29.49
2022-08-26T20:20:33.219Z,29.31
2022-08-26T20:23:04.496Z,29.34
2022-08-26T20:25:33.938Z,29.26
2022-08-26T20:28:02.129Z,29.12
2022-08-26T20:30:30.410Z,29.02
2022-08-26T20:32:58.702Z,29.06
2022-08-26T20:35:26.781Z,29.07
2022-08-26T20:37:54.738Z,29.05
2022-08-26T20:40:23.833Z,28.96
2022-08-26T20:42:51.767Z,28.89
2022-08-26T20:45:19.912Z,28.78
2022-08-26T20:47:47.871Z,28.75
2022-08-26T20:50:15.881Z,28.56
2022-08-26T20:52:43.837Z,28.59
2022-08-26T20:55:14.663Z,28.54
2022-08-26T20:57:44.477Z,28.46
2022-08-26T21:00:16.051Z,28.50
2022-08-26T21:02:46.541Z,28.47
2022-08-26T21:05:17.219Z,28.55
2022-08-26T21:07:45.979Z,28.50
2022-08-26T21:10:15.706Z,28.43
2022-08-26T21:12:45.168Z,28.49
2022-08-26T21:15:12.939Z,28.42
2022-08-26T21:17:41.685Z,28.32
2022-08-26T21:20:10.326Z,28.25
2022-08-26T21:22:38.536Z,28.27
2022-08-26T21:25:09.060Z,28.20
2022-08-26T21:27:40.485Z,28.09
2022-08-26T21:30:09.372Z,28.13
2022-08-26T21:32:37.343Z,28.15
2022-08-26T21:35:05.584Z,28.03
2022-08-26T21:37:33.780Z,28.03
2022-08-26T21:40:02.231Z,28.16
2022-08-26T21:42:34.243Z,28.24
2022-08-26T21:45:03.787Z,28.12
2022-08-26T21:47:32.775Z,28.09
2022-08-26T21:50:03.781Z,27.97
2022-08-26T21:52:35.427Z,27.96
2022-08-26T21:55:08.794Z,27.99
2022-08-26T21:57:37.028Z,27.84
2022-08-26T22:00:09.825Z,27.86
2022-08-26T22:02:38.545Z,27.79
2022-08-26T22:05:07.290Z,27.82
2022-08-26T22:07:35.294Z,27.75
2022-08-26T22:10:04.996Z,27.77
2022-08-26T22:12:33.203Z,27.71
2022-08-26T22:15:02.417Z,27.73
2022-08-26T22:17:31.052Z,27.72
2022-08-26T22:19:58.858Z,27.65
2022-08-26T22:22:28.730Z,27.66
2022-08-26T22:24:56.573Z,27.72
2022-08-26T22:27:24.446Z,27.74
2022-08-26T22:29:52.837Z,27.66
2022-08-26T22:32:20.631Z,27.62
2022-08-26T22:34:48.689Z,27.53
2022-08-26T22:37:16.512Z,27.45
2022-08-26T22:39:44.777Z,27.47
2022-08-26T22:42:12.832Z,27.47
2022-08-26T22:44:41.328Z,27.47
2022-08-26T22:47:17.335Z,27.46
2022-08-26T22:50:06.795Z,27.44
2022-08-26T22:52:36.683Z,27.45
2022-08-26T22:55:05.173Z,27.45
2022-08-26T22:57:33.249Z,27.31
2022-08-26T23:00:01.008Z,27.41
2022-08-26T23:02:28.982Z,27.44
2022-08-26T23:04:56.905Z,27.47
2022-08-26T23:07:24.667Z,27.31
2022-08-26T23:09:52.392Z,27.15
2022-08-26T23:12:20.247Z,27.16
2022-08-26T23:14:49.044Z,27.23
2022-08-26T23:17:16.865Z,27.31
2022-08-26T23:19:44.726Z,27.37
2022-08-26T23:22:12.599Z,27.36
2022-08-26T23:24:40.667Z,27.35
2022-08-26T23:27:08.517Z,27.27
2022-08-26T23:29:36.844Z,27.21
2022-08-26T23:32:05.012Z,27.17
2022-08-26T23:34:51.446Z,27.12
2022-08-26T23:37:19.770Z,27.20
2022-08-26T23:39:48.972Z,27.32
2022-08-26T23:42:16.798Z,27.43
2022-08-26T23:44:44.687Z,27.41
2022-08-26T23:47:13.587Z,27.37
2022-08-26T23:49:41.983Z,27.34
2022-08-26T23:52:28.984Z,27.23
2022-08-26T23:54:56.922Z,27.20
2022-08-26T23:57:25.713Z,27.15
2022-08-26T23:59:53.680Z,27.12
